createdAt,value
2022-10-24T00:01:58.928Z,98139.31
2022-10-24T00:04:25.640Z,98117.16
2022-10-24T00:18:05.806Z,98143.47
2022-10-24T00:20:49.032Z,98154.34
2022-10-24T00:23:22.023Z,98157.16
2022-10-24T00:25:48.578Z,98152.63
2022-10-24T00:28:28.834Z,98167.13
2022-10-24T00:31:02.387Z,98176.13
2022-10-24T00:47:22.878Z,98197.38
2022-10-24T00:50:09.119Z,98195.66
2022-10-24T00:52:52.853Z,98184.94
2022-10-24T00:55:26.037Z,98189.44
2022-10-24T00:58:02.851Z,98177.06
2022-10-24T01:00:36.020Z,98183.47
2022-10-24T01:13:41.818Z,98162.84
2022-10-24T01:16:29.830Z,98157.63
2022-10-24T01:19:28.153Z,98147.78
2022-10-24T01:22:14.850Z,98146.94
2022-10-24T01:25:08.370Z,98140.72
2022-10-24T01:38:32.814Z,98129.03
2022-10-24T01:41:19.066Z,98129.03
2022-10-24T01:44:04.071Z,98119.31
2022-10-24T01:46:54.049Z,98125.63
2022-10-24T01:49:34.255Z,98108.72
2022-10-24T02:06:02.858Z,98086.72
2022-10-24T02:08:43.314Z,98107.16
2022-10-24T02:11:23.861Z,98118.00
2022-10-24T02:14:05.250Z,98110.09
2022-10-24T02:16:44.856Z,98112.66
2022-10-24T02:19:18.597Z,98114.47
2022-10-24T02:32:00.805Z,98108.16
2022-10-24T02:34:44.855Z,98097.44
2022-10-24T02:37:22.964Z,98097.44
2022-10-24T02:40:06.839Z,98090.38
2022-10-24T02:42:44.092Z,98102.78
2022-10-24T02:45:26.545Z,98079.69
2022-10-24T02:58:50.826Z,98067.03
2022-10-24T03:01:24.002Z,98072.38
2022-10-24T03:03:50.665Z,98068.97
2022-10-24T03:06:30.841Z,98069.25
2022-10-24T03:09:04.017Z,98062.19
2022-10-24T03:11:30.605Z,98068.28
2022-10-24T03:27:52.859Z,98052.09
2022-10-24T03:30:26.021Z,98048.53
2022-10-24T03:32:52.587Z,98060.25
2022-10-24T03:35:32.833Z,98058.41
2022-10-24T03:38:05.907Z,98069.25
2022-10-24T03:40:32.536Z,98074.59
2022-10-24T03:53:39.822Z,98084.56
2022-10-24T03:56:19.830Z,98085.53
2022-10-24T03:58:53.043Z,98085.53
2022-10-24T04:01:30.868Z,98085.53
2022-10-24T04:04:04.501Z,98100.75
2022-10-24T04:06:37.841Z,98082.16
2022-10-24T04:19:49.857Z,98088.63
2022-10-24T04:22:22.988Z,98084.13
2022-10-24T04:24:56.841Z,98089.47
2022-10-24T04:27:30.425Z,98104.56
2022-10-24T04:30:03.823Z,98101.13
2022-10-24T04:32:37.013Z,98099.44
2022-10-24T04:35:13.842Z,98107.47
2022-10-24T04:45:43.815Z,98123.50
2022-10-24T04:48:23.826Z,98112.81
2022-10-24T04:50:59.242Z,98119.88
2022-10-24T04:53:34.456Z,98125.22
2022-10-24T04:56:07.990Z,98108.34
2022-10-24T04:58:40.834Z,98096.75
2022-10-24T05:01:14.033Z,98099.44
2022-10-24T05:14:03.798Z,98099.44
2022-10-24T05:16:43.834Z,98086.06
2022-10-24T05:19:17.896Z,98098.47
2022-10-24T05:21:50.832Z,98086.78
2022-10-24T05:24:24.580Z,98101.13
2022-10-24T05:26:57.851Z,98103.81
2022-10-24T05:40:18.814Z,98115.94
2022-10-24T05:42:51.895Z,98114.97
2022-10-24T05:45:26.830Z,98127.53
2022-10-24T05:47:59.991Z,98116.81
2022-10-24T05:50:39.818Z,98114.97
2022-10-24T05:53:12.902Z,98117.66
2022-10-24T05:55:49.041Z,98123.88
2022-10-24T06:06:00.802Z,98097.94
2022-10-24T06:08:41.804Z,98113.75
2022-10-24T06:11:17.629Z,98116.44
2022-10-24T06:13:50.812Z,98127.16
2022-10-24T06:16:24.061Z,98126.16
2022-10-24T06:18:50.674Z,98129.81
2022-10-24T06:21:30.809Z,98125.31
2022-10-24T06:34:41.831Z,98129.56
2022-10-24T06:37:14.880Z,98132.97
2022-10-24T06:39:41.420Z,98126.75
2022-10-24T06:42:21.825Z,98123.22
2022-10-24T06:44:54.885Z,98124.19
2022-10-24T07:01:16.105Z,98159.22
2022-10-24T07:03:50.554Z,98156.41
2022-10-24T07:06:27.834Z,98166.25
2022-10-24T07:09:04.051Z,98173.19
2022-10-24T07:11:37.815Z,98166.88
2022-10-24T07:14:11.129Z,98169.41
2022-10-24T07:16:46.828Z,98179.25
2022-10-24T07:26:34.789Z,98179.59
2022-10-24T07:29:14.849Z,98192.00
2022-10-24T07:31:50.014Z,98195.38
2022-10-24T07:34:30.816Z,98202.59
2022-10-24T07:37:04.139Z,98211.44
2022-10-24T07:39:37.822Z,98214.84
2022-10-24T07:53:01.817Z,98199.41
2022-10-24T07:55:37.778Z,98198.41
2022-10-24T07:58:10.813Z,98201.94
2022-10-24T08:00:45.463Z,98204.47
2022-10-24T08:03:20.608Z,98206.19
2022-10-24T08:05:53.864Z,98208.72
2022-10-24T08:22:09.814Z,98225.28
2022-10-24T08:24:44.018Z,98216.97
2022-10-24T08:27:17.817Z,98214.16
2022-10-24T08:29:50.866Z,98212.34
2022-10-24T08:32:17.476Z,98206.72
2022-10-24T08:34:57.815Z,98205.75
2022-10-24T08:50:53.660Z,98189.22
2022-10-24T08:53:34.836Z,98184.44
2022-10-24T08:56:11.555Z,98187.59
2022-10-24T08:58:52.793Z,98180.03
2022-10-24T09:01:37.146Z,98186.84
2022-10-24T09:14:36.790Z,98185.28
2022-10-24T09:17:24.793Z,98178.38
2022-10-24T09:20:01.943Z,98183.78
2022-10-24T09:22:44.304Z,98189.63
2022-10-24T09:25:23.636Z,98183.84
2022-10-24T09:41:44.802Z,98179.53
2022-10-24T09:44:32.694Z,98177.44
2022-10-24T09:47:31.806Z,98184.09
2022-10-24T09:50:16.902Z,98178.19
2022-10-24T09:53:02.843Z,98174.00
2022-10-24T09:55:44.765Z,98172.41
2022-10-24T10:08:42.770Z,98173.88
2022-10-24T10:11:30.862Z,98156.72
2022-10-24T10:14:26.130Z,98161.81
2022-10-24T10:17:09.795Z,98152.47
2022-10-24T10:19:46.592Z,98156.94
2022-10-24T10:33:26.834Z,98140.44
2022-10-24T10:36:19.785Z,98133.72
2022-10-24T10:39:16.172Z,98142.44
2022-10-24T10:42:04.871Z,98138.56
2022-10-24T10:45:03.429Z,98135.94
2022-10-24T11:01:43.963Z,98149.47
2022-10-24T11:04:32.114Z,98144.91
2022-10-24T11:07:25.038Z,98151.16
2022-10-24T11:10:03.190Z,98146.59
2022-10-24T11:12:46.799Z,98135.56
2022-10-24T11:15:26.131Z,98140.94
2022-10-24T11:28:31.780Z,98115.69
2022-10-24T11:31:19.803Z,98112.97
2022-10-24T11:34:00.673Z,98109.28
2022-10-24T11:36:52.066Z,98114.84
2022-10-24T11:39:34.172Z,98099.84
2022-10-24T11:56:09.831Z,98115.19
2022-10-24T11:58:52.415Z,98105.44
2022-10-24T12:02:21.867Z,98101.03
2022-10-24T12:05:57.374Z,98108.41
2022-10-24T12:25:14.247Z,98072.56
2022-10-24T12:28:01.830Z,98061.13
2022-10-24T12:30:36.530Z,98045.09
2022-10-24T12:33:29.790Z,98053.34
2022-10-24T12:36:04.027Z,98044.72
2022-10-24T12:49:25.585Z,98057.09
2022-10-24T12:53:01.793Z,98062.78
2022-10-24T12:56:09.775Z,98047.78
2022-10-24T12:59:02.822Z,98054.00
2022-10-24T13:01:36.367Z,98054.16
2022-10-24T13:14:54.792Z,97984.75
2022-10-24T13:17:47.203Z,98004.56
2022-10-24T13:20:26.082Z,97991.44
2022-10-24T13:23:11.794Z,97985.19
2022-10-24T13:25:46.145Z,97996.13
2022-10-24T13:28:41.798Z,98000.66
2022-10-24T13:31:45.717Z,98035.75
2022-10-24T13:41:23.822Z,98068.59
2022-10-24T13:44:05.869Z,98074.13
2022-10-24T13:46:55.026Z,98074.28
2022-10-24T13:49:35.317Z,98064.53
2022-10-24T13:52:25.801Z,98056.63
2022-10-24T13:55:12.511Z,98039.78
2022-10-24T14:08:11.773Z,98031.59
2022-10-24T14:10:51.786Z,98024.53
2022-10-24T14:13:28.646Z,98021.97
2022-10-24T14:16:13.834Z,98027.66
2022-10-24T14:18:46.882Z,98042.09
2022-10-24T14:21:26.793Z,98025.56
2022-10-24T14:34:45.810Z,98025.84
2022-10-24T14:37:27.982Z,98023.16
2022-10-24T14:40:09.816Z,98022.47
2022-10-24T14:42:45.718Z,98023.31
2022-10-24T14:45:31.825Z,98019.63
2022-10-24T14:48:20.298Z,98029.41
2022-10-24T14:51:09.814Z,98017.78
2022-10-24T15:01:22.793Z,98054.72
2022-10-24T15:04:05.825Z,98044.13
2022-10-24T15:06:43.536Z,98050.63
2022-10-24T15:09:24.854Z,98056.16
2022-10-24T15:12:01.780Z,98058.00
2022-10-24T15:14:45.811Z,98072.44
2022-10-24T15:27:58.863Z,98096.22
2022-10-24T15:30:36.348Z,98098.19
2022-10-24T15:33:16.800Z,98096.47
2022-10-24T15:35:49.879Z,98103.84
2022-10-24T15:38:23.806Z,98112.91
2022-10-24T15:40:57.010Z,98115.75
2022-10-24T15:54:31.763Z,98123.25
2022-10-24T15:57:15.817Z,98128.72
2022-10-24T15:59:48.915Z,98132.56
2022-10-24T16:02:27.781Z,98126.50
2022-10-24T16:05:01.173Z,98129.31
2022-10-24T16:07:27.750Z,98123.25
2022-10-24T16:10:13.807Z,98136.81
2022-10-24T16:23:25.330Z,98130.59
2022-10-24T16:25:59.109Z,98129.88
2022-10-24T16:28:31.794Z,98137.25
2022-10-24T16:31:06.482Z,98140.09
2022-10-24T16:33:40.786Z,98137.53
2022-10-24T16:36:14.813Z,98146.56
2022-10-24T16:49:03.774Z,98147.44
2022-10-24T16:51:44.220Z,98145.72
2022-10-24T16:54:17.897Z,98150.25
2022-10-24T16:56:53.579Z,98155.75
2022-10-24T16:59:26.952Z,98162.13
2022-10-24T17:01:59.957Z,98163.13
2022-10-24T17:15:16.739Z,98134.00
2022-10-24T17:17:50.849Z,98122.44
2022-10-24T17:20:24.783Z,98123.41
2022-10-24T17:23:01.683Z,98126.09
2022-10-24T17:25:47.462Z,98135.13
2022-10-24T17:28:22.722Z,98139.63
2022-10-24T17:30:57.828Z,98132.72
2022-10-24T17:44:04.790Z,98140.34
2022-10-24T17:46:34.366Z,98152.78
2022-10-24T17:49:17.904Z,98146.69
2022-10-24T17:51:53.836Z,98146.69
2022-10-24T17:54:26.795Z,98140.47
2022-10-24T17:56:59.934Z,98142.31
2022-10-24T18:09:48.767Z,98139.16
2022-10-24T18:12:28.796Z,98140.19
2022-10-24T18:15:12.370Z,98142.88
2022-10-24T18:17:52.794Z,98146.53
2022-10-24T18:20:26.176Z,98149.31
2022-10-24T18:36:41.779Z,98158.81
2022-10-24T18:39:14.843Z,98163.44
2022-10-24T18:41:52.841Z,98163.44
2022-10-24T18:44:29.291Z,98171.63
2022-10-24T18:47:13.786Z,98172.63
2022-10-24T18:49:48.054Z,98170.09
2022-10-24T19:02:53.758Z,98182.09
2022-10-24T19:05:53.563Z,98172.59
2022-10-24T19:08:30.295Z,98182.63
2022-10-24T19:11:03.835Z,98182.63
2022-10-24T19:13:37.194Z,98169.22
2022-10-24T19:16:10.834Z,98169.34
2022-10-24T19:29:23.785Z,98174.84
2022-10-24T19:31:56.917Z,98165.97
2022-10-24T19:34:23.458Z,98169.63
2022-10-24T19:37:04.827Z,98170.59
2022-10-24T19:39:37.946Z,98167.09
2022-10-24T19:42:04.633Z,98170.75
2022-10-24T19:55:25.753Z,98179.91
2022-10-24T19:58:05.785Z,98178.34
2022-10-24T20:00:39.883Z,98173.97
2022-10-24T20:03:12.773Z,98185.69
2022-10-24T20:05:45.823Z,98174.22
2022-10-24T20:08:12.421Z,98186.81
2022-10-24T20:10:59.814Z,98180.56
2022-10-24T20:24:09.808Z,98187.19
2022-10-24T20:26:44.921Z,98189.88
2022-10-24T20:29:17.770Z,98184.53
2022-10-24T20:31:50.948Z,98189.03
2022-10-24T20:34:17.527Z,98198.06
2022-10-24T20:36:57.807Z,98201.72
2022-10-24T20:50:09.810Z,98207.94
2022-10-24T20:52:42.955Z,98210.59
2022-10-24T20:55:32.023Z,98213.28
2022-10-24T20:58:11.248Z,98212.59
2022-10-24T21:00:44.767Z,98214.31
2022-10-24T21:17:20.811Z,98206.78
2022-10-24T21:20:00.773Z,98203.38
2022-10-24T21:22:33.850Z,98199.72
2022-10-24T21:25:00.447Z,98191.78
2022-10-24T21:27:40.829Z,98208.88
2022-10-24T21:30:14.916Z,98209.00
2022-10-24T21:43:06.775Z,98205.88
2022-10-24T21:45:47.842Z,98208.69
2022-10-24T21:48:26.289Z,98200.78
2022-10-24T21:51:12.800Z,98202.63
2022-10-24T21:53:49.089Z,98203.47
2022-10-24T21:56:25.791Z,98210.66
2022-10-24T22:09:36.774Z,98198.50
2022-10-24T22:12:09.872Z,98210.06
2022-10-24T22:14:36.448Z,98206.69
2022-10-24T22:17:16.802Z,98213.03
2022-10-24T22:19:50.000Z,98210.50
2022-10-24T22:22:16.553Z,98209.63
2022-10-24T22:35:55.750Z,98225.25
2022-10-24T22:38:35.796Z,98233.28
2022-10-24T22:41:11.039Z,98231.59
2022-10-24T22:43:45.854Z,98237.94
2022-10-24T22:46:44.562Z,98232.84
2022-10-24T22:49:40.282Z,98234.78
2022-10-24T22:52:16.873Z,98240.44
2022-10-24T23:05:12.739Z,98246.31
2022-10-24T23:08:02.793Z,98242.91
2022-10-24T23:10:36.501Z,98239.34
2022-10-24T23:13:10.810Z,98232.19
2022-10-24T23:15:44.348Z,98241.06
2022-10-24T23:29:17.751Z,98252.66
2022-10-24T23:32:00.786Z,98248.47
2022-10-24T23:34:35.205Z,98260.91
2022-10-24T23:37:11.777Z,98255.53
2022-10-24T23:39:45.945Z,98260.91
2022-10-24T23:42:20.774Z,98262.59
2022-10-24T23:45:05.362Z,98261.03
2022-10-24T23:58:01.749Z,98261.16
